sensor_id;sensor_type;location;lat;lon;timestamp;temperature;humidity
52675;DHT22;38569;52.722;6.440;2023-05-23T00:01:53;14.30;99.90
52675;DHT22;38569;52.722;6.440;2023-05-23T00:04:19;14.30;99.90
52675;DHT22;38569;52.722;6.440;2023-05-23T00:06:45;14.20;99.90
52675;DHT22;38569;52.722;6.440;2023-05-23T00:09:14;14.10;99.90
52675;DHT22;38569;52.722;6.440;2023-05-23T00:11:40;14.00;99.90
52675;DHT22;38569;52.722;6.440;2023-05-23T00:14:13;14.00;99.90
52675;DHT22;38569;52.722;6.440;2023-05-23T00:16:43;14.00;99.90
52675;DHT22;38569;52.722;6.440;2023-05-23T00:19:10;13.90;99.90
52675;DHT22;38569;52.722;6.440;2023-05-23T00:21:36;13.90;99.90
52675;DHT22;38569;52.722;6.440;2023-05-23T00:24:02;13.90;99.90
52675;DHT22;38569;52.722;6.440;2023-05-23T00:26:29;13.80;99.90
52675;DHT22;38569;52.722;6.440;2023-05-23T00:28:56;13.80;99.90
52675;DHT22;38569;52.722;6.440;2023-05-23T00:31:22;13.80;99.90
52675;DHT22;38569;52.722;6.440;2023-05-23T00:33:48;13.80;99.90
52675;DHT22;38569;52.722;6.440;2023-05-23T00:36:13;13.80;99.90
52675;DHT22;38569;52.722;6.440;2023-05-23T00:38:39;13.70;99.90
52675;DHT22;38569;52.722;6.440;2023-05-23T00:41:05;13.70;99.90
52675;DHT22;38569;52.722;6.440;2023-05-23T00:43:31;13.60;99.90
52675;DHT22;38569;52.722;6.440;2023-05-23T00:45:57;13.70;99.90
52675;DHT22;38569;52.722;6.440;2023-05-23T00:48:26;13.70;99.90
52675;DHT22;38569;52.722;6.440;2023-05-23T00:50:53;13.60;99.90
52675;DHT22;38569;52.722;6.440;2023-05-23T00:53:20;13.50;99.90
52675;DHT22;38569;52.722;6.440;2023-05-23T00:55:46;13.50;99.90
52675;DHT22;38569;52.722;6.440;2023-05-23T00:58:12;13.50;99.90
52675;DHT22;38569;52.722;6.440;2023-05-23T01:00:40;13.40;99.90
52675;DHT22;38569;52.722;6.440;2023-05-23T01:03:06;13.40;99.90
52675;DHT22;38569;52.722;6.440;2023-05-23T01:05:32;13.30;99.90
52675;DHT22;38569;52.722;6.440;2023-05-23T01:07:58;13.30;99.90
52675;DHT22;38569;52.722;6.440;2023-05-23T01:10:30;13.20;99.90
52675;DHT22;38569;52.722;6.440;2023-05-23T01:13:25;13.20;99.90
52675;DHT22;38569;52.722;6.440;2023-05-23T01:18:36;13.30;99.90
52675;DHT22;38569;52.722;6.440;2023-05-23T01:21:16;13.20;99.90
52675;DHT22;38569;52.722;6.440;2023-05-23T01:29:44;13.20;99.90
52675;DHT22;38569;52.722;6.440;2023-05-23T01:32:11;13.20;99.90
52675;DHT22;38569;52.722;6.440;2023-05-23T01:34:39;13.20;99.90
52675;DHT22;38569;52.722;6.440;2023-05-23T01:37:09;13.20;99.90
52675;DHT22;38569;52.722;6.440;2023-05-23T01:39:36;13.20;99.90
52675;DHT22;38569;52.722;6.440;2023-05-23T01:42:03;13.20;99.90
52675;DHT22;38569;52.722;6.440;2023-05-23T01:44:29;13.20;99.90
52675;DHT22;38569;52.722;6.440;2023-05-23T01:46:55;13.20;99.90
52675;DHT22;38569;52.722;6.440;2023-05-23T01:49:22;13.10;99.90
52675;DHT22;38569;52.722;6.440;2023-05-23T01:51:49;13.20;99.90
52675;DHT22;38569;52.722;6.440;2023-05-23T01:54:15;13.20;99.90
52675;DHT22;38569;52.722;6.440;2023-05-23T01:56:44;13.20;99.90
52675;DHT22;38569;52.722;6.440;2023-05-23T01:59:10;13.20;99.90
52675;DHT22;38569;52.722;6.440;2023-05-23T02:01:36;13.20;99.90
52675;DHT22;38569;52.722;6.440;2023-05-23T02:04:03;13.20;99.90
52675;DHT22;38569;52.722;6.440;2023-05-23T02:06:29;13.20;99.90
52675;DHT22;38569;52.722;6.440;2023-05-23T02:08:56;13.30;99.90
52675;DHT22;38569;52.722;6.440;2023-05-23T02:11:21;13.20;99.90
52675;DHT22;38569;52.722;6.440;2023-05-23T02:13:47;13.20;99.90
52675;DHT22;38569;52.722;6.440;2023-05-23T02:16:13;13.20;99.90
52675;DHT22;38569;52.722;6.440;2023-05-23T02:18:39;13.10;99.90
52675;DHT22;38569;52.722;6.440;2023-05-23T02:21:04;13.20;99.90
52675;DHT22;38569;52.722;6.440;2023-05-23T02:23:30;13.20;99.90
52675;DHT22;38569;52.722;6.440;2023-05-23T02:25:56;13.20;99.90
52675;DHT22;38569;52.722;6.440;2023-05-23T02:28:22;13.20;99.90
52675;DHT22;38569;52.722;6.440;2023-05-23T02:30:47;13.20;99.90
52675;DHT22;38569;52.722;6.440;2023-05-23T02:33:13;13.10;99.90
52675;DHT22;38569;52.722;6.440;2023-05-23T02:35:39;13.10;99.90
52675;DHT22;38569;52.722;6.440;2023-05-23T02:38:05;13.00;99.90
52675;DHT22;38569;52.722;6.440;2023-05-23T02:40:30;13.00;99.90
52675;DHT22;38569;52.722;6.440;2023-05-23T02:42:56;13.10;99.90
52675;DHT22;38569;52.722;6.440;2023-05-23T02:45:22;13.00;99.90
52675;DHT22;38569;52.722;6.440;2023-05-23T02:47:48;12.90;99.90
52675;DHT22;38569;52.722;6.440;2023-05-23T02:50:14;12.90;99.90
52675;DHT22;38569;52.722;6.440;2023-05-23T02:52:40;12.90;99.90
52675;DHT22;38569;52.722;6.440;2023-05-23T02:55:07;12.90;99.90
52675;DHT22;38569;52.722;6.440;2023-05-23T02:57:33;12.80;99.90
52675;DHT22;38569;52.722;6.440;2023-05-23T02:59:59;12.80;99.90
52675;DHT22;38569;52.722;6.440;2023-05-23T03:02:24;12.70;99.90
52675;DHT22;38569;52.722;6.440;2023-05-23T03:04:51;12.70;99.90
52675;DHT22;38569;52.722;6.440;2023-05-23T03:07:16;12.70;99.90
52675;DHT22;38569;52.722;6.440;2023-05-23T03:09:42;12.70;99.90
52675;DHT22;38569;52.722;6.440;2023-05-23T03:12:08;12.70;99.90
52675;DHT22;38569;52.722;6.440;2023-05-23T03:14:33;12.80;99.90
52675;DHT22;38569;52.722;6.440;2023-05-23T03:16:59;12.70;99.90
52675;DHT22;38569;52.722;6.440;2023-05-23T03:19:25;12.80;99.90
52675;DHT22;38569;52.722;6.440;2023-05-23T03:21:50;12.80;99.90
52675;DHT22;38569;52.722;6.440;2023-05-23T03:24:17;12.70;99.90
52675;DHT22;38569;52.722;6.440;2023-05-23T03:26:42;12.70;99.90
52675;DHT22;38569;52.722;6.440;2023-05-23T03:29:09;12.70;99.90
52675;DHT22;38569;52.722;6.440;2023-05-23T03:31:35;12.60;99.90
52675;DHT22;38569;52.722;6.440;2023-05-23T03:34:02;12.60;99.90
52675;DHT22;38569;52.722;6.440;2023-05-23T03:36:30;12.60;99.90
52675;DHT22;38569;52.722;6.440;2023-05-23T03:38:57;12.60;99.90
52675;DHT22;38569;52.722;6.440;2023-05-23T03:41:23;12.70;99.90
52675;DHT22;38569;52.722;6.440;2023-05-23T03:43:49;12.70;99.90
52675;DHT22;38569;52.722;6.440;2023-05-23T03:46:14;12.60;99.90
52675;DHT22;38569;52.722;6.440;2023-05-23T03:48:40;12.70;99.90
52675;DHT22;38569;52.722;6.440;2023-05-23T03:51:06;12.60;99.90
52675;DHT22;38569;52.722;6.440;2023-05-23T03:53:31;12.70;99.90
52675;DHT22;38569;52.722;6.440;2023-05-23T03:55:57;12.60;99.90
52675;DHT22;38569;52.722;6.440;2023-05-23T03:58:23;12.60;99.90
52675;DHT22;38569;52.722;6.440;2023-05-23T04:00:48;12.60;99.90
52675;DHT22;38569;52.722;6.440;2023-05-23T04:03:15;12.60;99.90
52675;DHT22;38569;52.722;6.440;2023-05-23T04:05:42;12.60;99.90
52675;DHT22;38569;52.722;6.440;2023-05-23T04:08:08;12.60;99.90
52675;DHT22;38569;52.722;6.440;2023-05-23T04:10:34;12.60;99.90
52675;DHT22;38569;52.722;6.440;2023-05-23T04:13:00;12.70;99.90
52675;DHT22;38569;52.722;6.440;2023-05-23T04:15:26;12.70;99.90
52675;DHT22;38569;52.722;6.440;2023-05-23T04:17:52;12.60;99.90
52675;DHT22;38569;52.722;6.440;2023-05-23T04:20:18;12.60;99.90
52675;DHT22;38569;52.722;6.440;2023-05-23T04:22:44;12.60;99.90
52675;DHT22;38569;52.722;6.440;2023-05-23T04:25:10;12.60;99.90
52675;DHT22;38569;52.722;6.440;2023-05-23T04:27:36;12.50;99.90
52675;DHT22;38569;52.722;6.440;2023-05-23T04:30:05;12.50;99.90
52675;DHT22;38569;52.722;6.440;2023-05-23T04:32:33;12.50;99.90
52675;DHT22;38569;52.722;6.440;2023-05-23T04:34:59;12.60;99.90
52675;DHT22;38569;52.722;6.440;2023-05-23T04:37:27;12.50;99.90
52675;DHT22;38569;52.722;6.440;2023-05-23T04:39:53;12.40;99.90
52675;DHT22;38569;52.722;6.440;2023-05-23T04:42:19;12.40;99.90
52675;DHT22;38569;52.722;6.440;2023-05-23T04:44:49;12.40;99.90
52675;DHT22;38569;52.722;6.440;2023-05-23T04:47:16;12.30;99.90
52675;DHT22;38569;52.722;6.440;2023-05-23T04:49:41;12.20;99.90
52675;DHT22;38569;52.722;6.440;2023-05-23T04:52:07;12.20;99.90
52675;DHT22;38569;52.722;6.440;2023-05-23T04:54:33;12.20;99.90
52675;DHT22;38569;52.722;6.440;2023-05-23T04:56:59;12.10;99.90
52675;DHT22;38569;52.722;6.440;2023-05-23T04:59:25;12.10;99.90
52675;DHT22;38569;52.722;6.440;2023-05-23T05:01:51;12.00;99.90
52675;DHT22;38569;52.722;6.440;2023-05-23T05:04:17;12.00;99.90
52675;DHT22;38569;52.722;6.440;2023-05-23T05:06:42;12.00;99.90
52675;DHT22;38569;52.722;6.440;2023-05-23T05:09:08;11.90;99.90
52675;DHT22;38569;52.722;6.440;2023-05-23T05:11:34;11.90;99.90
52675;DHT22;38569;52.722;6.440;2023-05-23T05:13:59;11.90;99.90
52675;DHT22;38569;52.722;6.440;2023-05-23T05:16:25;12.00;99.90
52675;DHT22;38569;52.722;6.440;2023-05-23T05:18:51;11.90;99.90
52675;DHT22;38569;52.722;6.440;2023-05-23T05:21:17;12.00;99.90
52675;DHT22;38569;52.722;6.440;2023-05-23T05:23:42;12.00;99.90
52675;DHT22;38569;52.722;6.440;2023-05-23T05:26:08;11.90;99.90
52675;DHT22;38569;52.722;6.440;2023-05-23T05:28:34;11.90;99.90
52675;DHT22;38569;52.722;6.440;2023-05-23T05:31:00;12.00;99.90
52675;DHT22;38569;52.722;6.440;2023-05-23T05:33:29;12.00;99.90
52675;DHT22;38569;52.722;6.440;2023-05-23T05:36:04;12.10;99.90
52675;DHT22;38569;52.722;6.440;2023-05-23T05:38:31;12.00;99.90
52675;DHT22;38569;52.722;6.440;2023-05-23T05:40:56;12.00;99.90
52675;DHT22;38569;52.722;6.440;2023-05-23T05:43:22;11.90;99.90
52675;DHT22;38569;52.722;6.440;2023-05-23T05:45:48;11.90;99.90
52675;DHT22;38569;52.722;6.440;2023-05-23T05:48:13;11.80;99.90
52675;DHT22;38569;52.722;6.440;2023-05-23T05:50:39;11.70;99.90
52675;DHT22;38569;52.722;6.440;2023-05-23T05:53:06;11.70;99.90
52675;DHT22;38569;52.722;6.440;2023-05-23T05:55:33;11.70;99.90
52675;DHT22;38569;52.722;6.440;2023-05-23T05:57:59;11.70;99.90
52675;DHT22;38569;52.722;6.440;2023-05-23T06:00:24;11.60;99.90
52675;DHT22;38569;52.722;6.440;2023-05-23T06:02:50;11.60;99.90
52675;DHT22;38569;52.722;6.440;2023-05-23T06:05:16;11.60;99.90
52675;DHT22;38569;52.722;6.440;2023-05-23T06:07:42;11.60;99.90
52675;DHT22;38569;52.722;6.440;2023-05-23T06:10:08;11.50;99.90
52675;DHT22;38569;52.722;6.440;2023-05-23T06:12:37;11.60;99.90
52675;DHT22;38569;52.722;6.440;2023-05-23T06:15:07;11.60;99.90
52675;DHT22;38569;52.722;6.440;2023-05-23T06:17:34;11.60;99.90
52675;DHT22;38569;52.722;6.440;2023-05-23T06:19:59;11.60;99.90
52675;DHT22;38569;52.722;6.440;2023-05-23T06:22:25;11.50;99.90
52675;DHT22;38569;52.722;6.440;2023-05-23T06:24:51;11.50;99.90
52675;DHT22;38569;52.722;6.440;2023-05-23T06:27:17;11.60;99.90
52675;DHT22;38569;52.722;6.440;2023-05-23T06:29:42;11.70;99.90
52675;DHT22;38569;52.722;6.440;2023-05-23T06:32:08;11.60;99.90
52675;DHT22;38569;52.722;6.440;2023-05-23T06:34:34;11.60;99.90
52675;DHT22;38569;52.722;6.440;2023-05-23T06:36:59;11.60;99.90
52675;DHT22;38569;52.722;6.440;2023-05-23T06:39:25;11.60;99.90
52675;DHT22;38569;52.722;6.440;2023-05-23T06:41:51;11.60;99.90
52675;DHT22;38569;52.722;6.440;2023-05-23T06:44:16;11.50;99.90
52675;DHT22;38569;52.722;6.440;2023-05-23T06:46:44;11.60;99.90
52675;DHT22;38569;52.722;6.440;2023-05-23T06:49:10;11.60;99.90
52675;DHT22;38569;52.722;6.440;2023-05-23T06:51:36;11.60;99.90
52675;DHT22;38569;52.722;6.440;2023-05-23T06:54:02;11.60;99.90
52675;DHT22;38569;52.722;6.440;2023-05-23T06:56:28;11.60;99.90
52675;DHT22;38569;52.722;6.440;2023-05-23T06:58:54;11.60;99.90
52675;DHT22;38569;52.722;6.440;2023-05-23T07:01:20;11.50;99.90
52675;DHT22;38569;52.722;6.440;2023-05-23T07:03:45;11.50;99.90
52675;DHT22;38569;52.722;6.440;2023-05-23T07:06:11;11.60;99.90
52675;DHT22;38569;52.722;6.440;2023-05-23T07:08:37;11.70;99.90
52675;DHT22;38569;52.722;6.440;2023-05-23T07:11:04;11.70;99.90
52675;DHT22;38569;52.722;6.440;2023-05-23T07:13:31;11.70;99.90
52675;DHT22;38569;52.722;6.440;2023-05-23T07:15:57;11.70;99.90
52675;DHT22;38569;52.722;6.440;2023-05-23T07:18:23;11.70;99.90
52675;DHT22;38569;52.722;6.440;2023-05-23T07:20:48;11.80;99.90
52675;DHT22;38569;52.722;6.440;2023-05-23T07:23:14;11.80;99.90
52675;DHT22;38569;52.722;6.440;2023-05-23T07:25:40;11.80;99.90
52675;DHT22;38569;52.722;6.440;2023-05-23T07:28:07;11.80;99.90
52675;DHT22;38569;52.722;6.440;2023-05-23T07:30:33;11.80;99.90
52675;DHT22;38569;52.722;6.440;2023-05-23T07:32:59;12.20;99.90
52675;DHT22;38569;52.722;6.440;2023-05-23T07:35:25;13.00;99.90
52675;DHT22;38569;52.722;6.440;2023-05-23T07:37:54;13.80;99.90
52675;DHT22;38569;52.722;6.440;2023-05-23T07:40:23;14.20;99.90
52675;DHT22;38569;52.722;6.440;2023-05-23T07:42:49;14.70;99.90
52675;DHT22;38569;52.722;6.440;2023-05-23T07:45:15;15.40;99.90
52675;DHT22;38569;52.722;6.440;2023-05-23T07:47:41;15.70;99.90
52675;DHT22;38569;52.722;6.440;2023-05-23T07:50:07;15.40;99.90
52675;DHT22;38569;52.722;6.440;2023-05-23T07:52:34;15.10;99.90
52675;DHT22;38569;52.722;6.440;2023-05-23T07:55:00;14.60;99.90
52675;DHT22;38569;52.722;6.440;2023-05-23T07:57:25;14.60;99.90
52675;DHT22;38569;52.722;6.440;2023-05-23T07:59:52;14.00;99.90
52675;DHT22;38569;52.722;6.440;2023-05-23T08:02:19;13.70;99.90
52675;DHT22;38569;52.722;6.440;2023-05-23T08:04:46;13.50;99.90
52675;DHT22;38569;52.722;6.440;2023-05-23T08:07:11;13.70;99.90
52675;DHT22;38569;52.722;6.440;2023-05-23T08:09:40;13.80;99.90
52675;DHT22;38569;52.722;6.440;2023-05-23T08:12:07;13.80;99.90
52675;DHT22;38569;52.722;6.440;2023-05-23T08:14:34;13.70;99.90
52675;DHT22;38569;52.722;6.440;2023-05-23T08:17:01;13.50;99.90
52675;DHT22;38569;52.722;6.440;2023-05-23T08:19:27;13.50;99.90
52675;DHT22;38569;52.722;6.440;2023-05-23T08:21:53;13.40;99.90
52675;DHT22;38569;52.722;6.440;2023-05-23T08:24:19;13.30;99.90
52675;DHT22;38569;52.722;6.440;2023-05-23T08:26:45;13.30;99.90
52675;DHT22;38569;52.722;6.440;2023-05-23T08:29:11;13.40;99.90
52675;DHT22;38569;52.722;6.440;2023-05-23T08:31:37;13.50;99.90
52675;DHT22;38569;52.722;6.440;2023-05-23T08:34:03;13.60;99.90
52675;DHT22;38569;52.722;6.440;2023-05-23T08:36:29;13.70;99.90
52675;DHT22;38569;52.722;6.440;2023-05-23T08:38:54;13.90;99.90
52675;DHT22;38569;52.722;6.440;2023-05-23T08:41:23;14.00;99.90
52675;DHT22;38569;52.722;6.440;2023-05-23T08:43:50;13.80;99.90
52675;DHT22;38569;52.722;6.440;2023-05-23T08:46:16;13.80;99.90
52675;DHT22;38569;52.722;6.440;2023-05-23T08:48:43;13.90;99.90
52675;DHT22;38569;52.722;6.440;2023-05-23T08:51:13;14.20;99.90
52675;DHT22;38569;52.722;6.440;2023-05-23T08:53:41;14.30;99.90
52675;DHT22;38569;52.722;6.440;2023-05-23T08:56:18;14.50;99.90
52675;DHT22;38569;52.722;6.440;2023-05-23T08:58:44;14.30;99.90
52675;DHT22;38569;52.722;6.440;2023-05-23T09:01:12;14.40;99.90
52675;DHT22;38569;52.722;6.440;2023-05-23T09:03:39;14.40;99.90
52675;DHT22;38569;52.722;6.440;2023-05-23T09:06:08;14.50;99.90
52675;DHT22;38569;52.722;6.440;2023-05-23T09:08:34;14.80;99.90
52675;DHT22;38569;52.722;6.440;2023-05-23T09:11:01;14.80;99.90
52675;DHT22;38569;52.722;6.440;2023-05-23T09:13:28;14.70;99.90
52675;DHT22;38569;52.722;6.440;2023-05-23T09:18:44;15.10;99.90
52675;DHT22;38569;52.722;6.440;2023-05-23T09:21:10;15.40;99.90
52675;DHT22;38569;52.722;6.440;2023-05-23T09:23:38;15.70;99.90
52675;DHT22;38569;52.722;6.440;2023-05-23T09:26:06;16.30;99.90
52675;DHT22;38569;52.722;6.440;2023-05-23T09:28:32;16.60;99.90
52675;DHT22;38569;52.722;6.440;2023-05-23T09:31:02;16.40;99.90
52675;DHT22;38569;52.722;6.440;2023-05-23T09:33:47;16.60;99.90
52675;DHT22;38569;52.722;6.440;2023-05-23T09:36:13;16.80;99.90
52675;DHT22;38569;52.722;6.440;2023-05-23T09:38:40;17.20;99.90
52675;DHT22;38569;52.722;6.440;2023-05-23T09:41:07;17.90;98.70
52675;DHT22;38569;52.722;6.440;2023-05-23T09:43:33;17.80;98.40
52675;DHT22;38569;52.722;6.440;2023-05-23T09:46:11;18.40;96.90
52675;DHT22;38569;52.722;6.440;2023-05-23T09:48:37;18.50;94.90
52675;DHT22;38569;52.722;6.440;2023-05-23T09:51:09;18.60;93.70
52675;DHT22;38569;52.722;6.440;2023-05-23T09:53:35;18.30;87.00
52675;DHT22;38569;52.722;6.440;2023-05-23T09:56:02;18.10;92.00
52675;DHT22;38569;52.722;6.440;2023-05-23T09:58:29;18.20;94.30
52675;DHT22;38569;52.722;6.440;2023-05-23T10:00:59;18.20;97.60
52675;DHT22;38569;52.722;6.440;2023-05-23T10:03:36;18.10;94.50
52675;DHT22;38569;52.722;6.440;2023-05-23T10:06:11;17.80;90.50
52675;DHT22;38569;52.722;6.440;2023-05-23T10:08:41;18.40;95.30
52675;DHT22;38569;52.722;6.440;2023-05-23T10:13:44;18.70;90.30
52675;DHT22;38569;52.722;6.440;2023-05-23T10:16:27;18.60;76.00
52675;DHT22;38569;52.722;6.440;2023-05-23T10:19:00;18.60;74.60
52675;DHT22;38569;52.722;6.440;2023-05-23T10:21:32;18.40;80.70
52675;DHT22;38569;52.722;6.440;2023-05-23T10:24:03;18.50;90.30
52675;DHT22;38569;52.722;6.440;2023-05-23T10:26:28;19.30;90.30
52675;DHT22;38569;52.722;6.440;2023-05-23T10:28:56;19.60;73.20
52675;DHT22;38569;52.722;6.440;2023-05-23T10:31:23;19.20;70.80
52675;DHT22;38569;52.722;6.440;2023-05-23T10:33:59;18.90;71.60
52675;DHT22;38569;52.722;6.440;2023-05-23T10:36:33;18.70;73.80
52675;DHT22;38569;52.722;6.440;2023-05-23T10:39:09;18.10;81.50
52675;DHT22;38569;52.722;6.440;2023-05-23T10:44:17;18.00;80.70
52675;DHT22;38569;52.722;6.440;2023-05-23T10:46:55;18.00;88.20
52675;DHT22;38569;52.722;6.440;2023-05-23T10:49:38;17.90;78.60
52675;DHT22;38569;52.722;6.440;2023-05-23T10:52:08;18.10;79.20
52675;DHT22;38569;52.722;6.440;2023-05-23T10:57:15;18.40;75.10
52675;DHT22;38569;52.722;6.440;2023-05-23T10:59:41;18.20;82.00
52675;DHT22;38569;52.722;6.440;2023-05-23T11:02:15;18.70;82.10
52675;DHT22;38569;52.722;6.440;2023-05-23T11:04:41;19.00;75.80
52675;DHT22;38569;52.722;6.440;2023-05-23T11:07:30;18.90;72.40
52675;DHT22;38569;52.722;6.440;2023-05-23T11:10:09;18.90;72.20
52675;DHT22;38569;52.722;6.440;2023-05-23T11:12:43;18.40;71.90
52675;DHT22;38569;52.722;6.440;2023-05-23T11:15:19;18.80;72.20
52675;DHT22;38569;52.722;6.440;2023-05-23T11:17:53;18.80;69.70
52675;DHT22;38569;52.722;6.440;2023-05-23T11:20:20;18.40;69.30
52675;DHT22;38569;52.722;6.440;2023-05-23T11:23:01;17.80;71.90
52675;DHT22;38569;52.722;6.440;2023-05-23T11:28:12;17.80;81.60
52675;DHT22;38569;52.722;6.440;2023-05-23T11:30:38;18.10;74.60
52675;DHT22;38569;52.722;6.440;2023-05-23T11:35:33;18.70;72.90
52675;DHT22;38569;52.722;6.440;2023-05-23T11:38:00;18.70;69.10
52675;DHT22;38569;52.722;6.440;2023-05-23T11:40:37;18.80;70.90
52675;DHT22;38569;52.722;6.440;2023-05-23T11:43:12;18.30;69.90
52675;DHT22;38569;52.722;6.440;2023-05-23T11:45:39;17.80;70.00
52675;DHT22;38569;52.722;6.440;2023-05-23T11:48:08;18.10;71.30
52675;DHT22;38569;52.722;6.440;2023-05-23T11:50:49;18.70;73.40
52675;DHT22;38569;52.722;6.440;2023-05-23T11:53:16;19.40;69.80
52675;DHT22;38569;52.722;6.440;2023-05-23T11:55:55;19.20;65.50
52675;DHT22;38569;52.722;6.440;2023-05-23T11:58:28;18.50;65.70
52675;DHT22;38569;52.722;6.440;2023-05-23T12:00:59;18.30;67.90
52675;DHT22;38569;52.722;6.440;2023-05-23T12:03:25;17.90;69.30
52675;DHT22;38569;52.722;6.440;2023-05-23T12:05:51;17.30;71.20
52675;DHT22;38569;52.722;6.440;2023-05-23T12:08:17;17.00;75.80
52675;DHT22;38569;52.722;6.440;2023-05-23T12:10:52;17.20;83.50
52675;DHT22;38569;52.722;6.440;2023-05-23T12:13:19;17.40;83.40
52675;DHT22;38569;52.722;6.440;2023-05-23T12:15:48;17.60;77.70
52675;DHT22;38569;52.722;6.440;2023-05-23T12:18:13;17.90;72.90
52675;DHT22;38569;52.722;6.440;2023-05-23T12:20:40;17.70;71.70
52675;DHT22;38569;52.722;6.440;2023-05-23T12:23:06;17.80;73.80
52675;DHT22;38569;52.722;6.440;2023-05-23T12:25:39;17.90;76.10
52675;DHT22;38569;52.722;6.440;2023-05-23T12:28:09;17.90;72.50
52675;DHT22;38569;52.722;6.440;2023-05-23T12:30:42;18.20;69.70
52675;DHT22;38569;52.722;6.440;2023-05-23T12:33:08;18.50;64.70
52675;DHT22;38569;52.722;6.440;2023-05-23T12:35:34;18.70;67.70
52675;DHT22;38569;52.722;6.440;2023-05-23T12:38:00;18.80;68.10
52675;DHT22;38569;52.722;6.440;2023-05-23T12:40:27;18.00;65.70
52675;DHT22;38569;52.722;6.440;2023-05-23T12:42:56;17.20;68.00
52675;DHT22;38569;52.722;6.440;2023-05-23T12:45:23;17.00;69.40
52675;DHT22;38569;52.722;6.440;2023-05-23T12:47:49;17.40;71.90
52675;DHT22;38569;52.722;6.440;2023-05-23T12:50:15;17.80;71.30
52675;DHT22;38569;52.722;6.440;2023-05-23T12:52:41;17.90;67.90
52675;DHT22;38569;52.722;6.440;2023-05-23T12:55:09;17.50;69.30
52675;DHT22;38569;52.722;6.440;2023-05-23T12:57:35;17.10;68.00
52675;DHT22;38569;52.722;6.440;2023-05-23T13:00:01;17.20;68.80
52675;DHT22;38569;52.722;6.440;2023-05-23T13:02:27;17.60;68.60
52675;DHT22;38569;52.722;6.440;2023-05-23T13:04:53;18.10;69.50
52675;DHT22;38569;52.722;6.440;2023-05-23T13:07:19;18.10;66.40
52675;DHT22;38569;52.722;6.440;2023-05-23T13:09:45;17.80;67.10
52675;DHT22;38569;52.722;6.440;2023-05-23T13:12:11;17.30;67.20
52675;DHT22;38569;52.722;6.440;2023-05-23T13:14:37;16.90;67.20
52675;DHT22;38569;52.722;6.440;2023-05-23T13:17:03;16.90;68.10
52675;DHT22;38569;52.722;6.440;2023-05-23T13:19:28;16.80;68.90
52675;DHT22;38569;52.722;6.440;2023-05-23T13:21:54;16.70;67.70
52675;DHT22;38569;52.722;6.440;2023-05-23T13:24:20;16.40;68.20
52675;DHT22;38569;52.722;6.440;2023-05-23T13:26:46;16.30;68.30
52675;DHT22;38569;52.722;6.440;2023-05-23T13:29:12;16.40;68.30
52675;DHT22;38569;52.722;6.440;2023-05-23T13:31:38;16.90;68.50
52675;DHT22;38569;52.722;6.440;2023-05-23T13:34:04;17.20;68.20
52675;DHT22;38569;52.722;6.440;2023-05-23T13:36:29;17.10;67.60
52675;DHT22;38569;52.722;6.440;2023-05-23T13:38:56;17.20;68.70
52675;DHT22;38569;52.722;6.440;2023-05-23T13:41:21;17.60;68.00
52675;DHT22;38569;52.722;6.440;2023-05-23T13:43:47;17.50;66.70
52675;DHT22;38569;52.722;6.440;2023-05-23T13:46:13;17.80;69.10
52675;DHT22;38569;52.722;6.440;2023-05-23T13:48:39;18.30;66.80
52675;DHT22;38569;52.722;6.440;2023-05-23T13:51:05;18.50;65.50
52675;DHT22;38569;52.722;6.440;2023-05-23T13:53:31;18.60;63.40
52675;DHT22;38569;52.722;6.440;2023-05-23T13:55:57;18.60;65.30
52675;DHT22;38569;52.722;6.440;2023-05-23T13:58:23;18.70;61.70
52675;DHT22;38569;52.722;6.440;2023-05-23T14:00:48;18.50;63.00
52675;DHT22;38569;52.722;6.440;2023-05-23T14:03:14;18.30;62.70
52675;DHT22;38569;52.722;6.440;2023-05-23T14:05:40;18.70;63.30
52675;DHT22;38569;52.722;6.440;2023-05-23T14:08:06;18.10;61.30
52675;DHT22;38569;52.722;6.440;2023-05-23T14:10:33;17.50;62.50
52675;DHT22;38569;52.722;6.440;2023-05-23T14:12:59;17.20;65.20
52675;DHT22;38569;52.722;6.440;2023-05-23T14:15:25;17.30;62.40
52675;DHT22;38569;52.722;6.440;2023-05-23T14:17:52;17.40;62.00
52675;DHT22;38569;52.722;6.440;2023-05-23T14:20:22;17.60;61.20
52675;DHT22;38569;52.722;6.440;2023-05-23T14:22:48;17.70;60.70
52675;DHT22;38569;52.722;6.440;2023-05-23T14:25:15;17.80;62.50
52675;DHT22;38569;52.722;6.440;2023-05-23T14:27:41;17.90;62.30
52675;DHT22;38569;52.722;6.440;2023-05-23T14:30:08;17.80;63.50
52675;DHT22;38569;52.722;6.440;2023-05-23T14:32:34;17.50;64.90
52675;DHT22;38569;52.722;6.440;2023-05-23T14:35:04;17.60;63.20
52675;DHT22;38569;52.722;6.440;2023-05-23T14:37:30;17.50;61.90
52675;DHT22;38569;52.722;6.440;2023-05-23T14:39:56;17.60;62.80
52675;DHT22;38569;52.722;6.440;2023-05-23T14:42:22;17.20;62.40
52675;DHT22;38569;52.722;6.440;2023-05-23T14:44:48;17.00;63.50
52675;DHT22;38569;52.722;6.440;2023-05-23T14:47:14;16.90;64.90
52675;DHT22;38569;52.722;6.440;2023-05-23T14:49:40;16.60;65.10
52675;DHT22;38569;52.722;6.440;2023-05-23T14:52:06;16.30;65.50
52675;DHT22;38569;52.722;6.440;2023-05-23T14:54:34;16.40;64.90
52675;DHT22;38569;52.722;6.440;2023-05-23T14:57:00;16.50;63.80
52675;DHT22;38569;52.722;6.440;2023-05-23T14:59:28;16.70;64.50
52675;DHT22;38569;52.722;6.440;2023-05-23T15:01:53;17.00;64.60
52675;DHT22;38569;52.722;6.440;2023-05-23T15:04:21;16.90;62.60
52675;DHT22;38569;52.722;6.440;2023-05-23T15:06:47;16.70;62.90
52675;DHT22;38569;52.722;6.440;2023-05-23T15:09:13;16.80;63.50
52675;DHT22;38569;52.722;6.440;2023-05-23T15:11:41;16.50;62.80
52675;DHT22;38569;52.722;6.440;2023-05-23T15:14:09;16.30;62.40
52675;DHT22;38569;52.722;6.440;2023-05-23T15:16:35;15.90;63.60
52675;DHT22;38569;52.722;6.440;2023-05-23T15:19:03;15.90;65.20
52675;DHT22;38569;52.722;6.440;2023-05-23T15:21:29;15.90;66.00
52675;DHT22;38569;52.722;6.440;2023-05-23T15:23:55;16.10;66.00
52675;DHT22;38569;52.722;6.440;2023-05-23T15:26:22;16.20;66.00
52675;DHT22;38569;52.722;6.440;2023-05-23T15:28:48;16.50;66.70
52675;DHT22;38569;52.722;6.440;2023-05-23T15:31:14;16.50;65.90
52675;DHT22;38569;52.722;6.440;2023-05-23T15:33:40;16.50;65.70
52675;DHT22;38569;52.722;6.440;2023-05-23T15:36:06;16.20;65.50
52675;DHT22;38569;52.722;6.440;2023-05-23T15:38:32;15.90;65.60
52675;DHT22;38569;52.722;6.440;2023-05-23T15:40:58;15.60;67.70
52675;DHT22;38569;52.722;6.440;2023-05-23T15:43:24;15.70;69.90
52675;DHT22;38569;52.722;6.440;2023-05-23T15:45:51;15.70;72.30
52675;DHT22;38569;52.722;6.440;2023-05-23T15:48:18;15.80;72.00
52675;DHT22;38569;52.722;6.440;2023-05-23T15:50:44;15.70;71.40
52675;DHT22;38569;52.722;6.440;2023-05-23T15:53:09;15.40;74.60
52675;DHT22;38569;52.722;6.440;2023-05-23T15:55:35;15.40;73.80